This is the latest recevied weather packets stored in our database for station/object N1PRS-9. If no packets are shown the sender has not sent any weather packets the latest 10 day(s).
| Time | Temp. | Humidity | Pressure | Rain* | Wind** | Luminosity | Snow |
|---|---|---|---|---|---|---|---|
| 1777811445 | 6.67° C | 66% | 1009.6 hPa | 0 mm | - | 162 W/m² | - |
| 1777809334 | 5.56° C | 69% | 1009.6 hPa | 0 mm | - | 35 W/m² | - |
| 1777808791 | 5° C | 71% | 1009.5 hPa | 0 mm | - | 42 W/m² | - |
| 1777808432 | 5° C | 71% | 1009.6 hPa | 0 mm | - | 32 W/m² | - |
| 1777806044 | 3.33° C | 76% | 1009.4 hPa | 0 mm | - | 18 W/m² | - |
| 1777805169 | 2.78° C | 77% | 1009.3 hPa | 0 mm | - | 14 W/m² | - |
| 1777801550 | 3.89° C | 71% | 1009.2 hPa | 0 mm | - | 0 W/m² | - |
| 1777800937 | 3.89° C | 70% | 1009.1 hPa | 0 mm | - | 0 W/m² | - |
| 1777800647 | 4.44° C | 70% | 1009.1 hPa | 0 mm | - | 0 W/m² | - |
| 1777799132 | 4.44° C | 68% | 1009.5 hPa | 0 mm | - | 0 W/m² | - |
| 1777798851 | 4.44° C | 68% | 1009.5 hPa | 0 mm | - | 0 W/m² | - |
| 1777795532 | 5.56° C | 65% | 1010 hPa | 0 mm | - | 0 W/m² | - |
| 1777791032 | 6.67° C | 59% | 1010.3 hPa | 0 mm | - | 0 W/m² | - |
| 1777790432 | 6.67° C | 59% | 1010.3 hPa | 0 mm | - | 0 W/m² | - |
| 1777788333 | 7.22° C | 56% | 1010.8 hPa | 0 mm | - | 0 W/m² | - |
| 1777786832 | 7.22° C | 56% | 1011.3 hPa | 0 mm | - | 0 W/m² | - |
| 1777785347 | 7.78° C | 56% | 1011.4 hPa | 0 mm | - | 0 W/m² | - |
| 1777784445 | 7.78° C | 55% | 1011.6 hPa | 0 mm | - | 0 W/m² | - |
| 1777783835 | 7.78° C | 55% | 1011.5 hPa | 0 mm | - | 0 W/m² | - |
| 1777782033 | 7.78° C | 56% | 1011.7 hPa | 0 mm | - | 0 W/m² | - |
| 1777781135 | 8.33° C | 56% | 1011.7 hPa | 0 mm | - | 0 W/m² | - |
| 1777780840 | 8.33° C | 56% | 1011.8 hPa | 0 mm | - | 0 W/m² | - |
| 1777780240 | 8.33° C | 56% | 1011.7 hPa | 0 mm | - | 0 W/m² | - |
| 1777779948 | 8.33° C | 56% | 1011.7 hPa | 0 mm | - | 0 W/m² | - |
| 1777778156 | 8.89° C | 55% | 1011.8 hPa | 0 mm | - | 0 W/m² | - |
* Rain latest hour (hover to see other rain measurements)
** Current wind speed in m/s (hover to see current wind gust speed)